Aviation Digital Data Service (ADDS)

Output produced by METARs form (0400 UTC 29 April 2016)
found at http://aviationweather.gov/adds/metars/
 
KLFT 290353Z AUTO 15005KT 10SM BKN016 OVC024 25/23 A2990 RMK AO2 SLP123 T02500233